Pagrindinis puslapis
METAR-TAF:

METAR-TAF

Oro uostai :

Salala, Omanas

platuma: 17-02N, ilguma: 054-05E, Aukštis: 20 m

Dabartinis oras

Ataskaita buvo paskelbta 20 minutes, ne 01:50 UTC
Vėjas 8 kt iš Šiaurės/Šiaurės Rytų, svyruoja nuo Šiaurės ir Rytų/Šiaurės Rytų
Temperatūra 24°C
Drėgmė 22%
Slėgis 1015 hPa
Matomumas 10 km arba daugiau
nėra debesų žemiau 1500 m ir nėra kamuolinių lietaus debesų

METAR: OOSA 300150Z 03008KT 350V070 CAVOK 24/01 Q1015 NOSIG

Laikas: 06:10 (02:10 UTC)

Prognozė

Ataskaita buvo paskelbta 14 valandos ir 30 minutes, ne 11:40 UTC
Prognozė galioja nuo 29 metu 12 UTC su 30 metu 18 UTC
Vėjas 15 kt iš Šiaurės
Matomumas 10 km arba daugiau
nėra debesų žemiau 1500 m ir nėra kamuolinių lietaus debesų
Tapsmas
nuo 29 metu 14 UTC su 29 metu 16 UTC
Vėjas 3 kt nuo kintamojo kryptimis
Tapsmas
nuo 29 metu 23 UTC su 30 metu 01 UTC
Vėjas 16 kt iš Šiaurės

TAF: OOSA 291140Z 2912/3018 01015KT CAVOK BECMG 2914/2916 VRB03KT BECMG 2923/3001 36016KT

Orai ataskaitas ir orų prognozės (METAR, TAF).

turimą stotys yra geltonos ir raudonos taškus žemėlapyje.

Perkelti pele per norėdami pamatyti stoties vardą.

Tada spustelėkite, norėdami matyti oro stebėjimo ir prognozės.

Norėdami pakeisti žemėlapį: spustelėkite ant žalios mygtukų su juodo kryžiaus žemyn,; žalią mygtuką su brūkšneliu, jei norite nutolinti; arba žalių rodyklių gretimoms žemėlapius.


METAR-TAF: